Time;durP1;ratioP1;P1;durP2;ratioP2;P2;SDS_P1;SDS_P2;PMS_P1;PMS_P2;Temp;Humidity;BMP_temperature;BMP_pressure;BME280_temperature;BME280_humidity;BME280_pressure;Samples;Min_cycle;Max_cycle;Signal;HPM_P1;HPM_P2
2022/03/22 00:00:55;;;;;;;13.18;6.95;;;;;;;;;;5051504;28;20325;-69
2022/03/22 00:04:02;;;;;;;11.32;6.97;;;;;;;;;;5051446;28;20041;-68
2022/03/22 00:07:07;;;;;;;14.00;6.55;;;;;;;;;;5051514;28;20041;-68
2022/03/22 00:10:12;;;;;;;12.90;7.25;;;;;;;;;;5051335;28;20051;-68
2022/03/22 00:13:16;;;;;;;11.80;6.88;;;;;;;;;;5051262;28;20066;-68
2022/03/22 00:16:21;;;;;;;13.10;6.95;;;;;;;;;;5051074;28;20056;-68
2022/03/22 00:19:25;;;;;;;14.10;7.43;;;;;;;;;;5050997;28;20039;-68
2022/03/22 00:22:29;;;;;;;13.63;7.55;;;;;;;;;;5051223;28;20048;-68
2022/03/22 00:25:33;;;;;;;14.50;6.05;;;;;;;;;;5051141;28;20036;-68
2022/03/22 00:28:38;;;;;;;16.45;7.15;;;;;;;;;;5050921;28;20258;-68
2022/03/22 00:31:43;;;;;;;10.95;6.78;;;;;;;;;;5050848;28;20044;-68
2022/03/22 00:34:47;;;;;;;12.52;7.05;;;;;;;;;;5051048;28;20186;-69
2022/03/22 00:37:53;;;;;;;12.52;7.40;;;;;;;;;;5050822;28;20040;-69
2022/03/22 00:40:58;;;;;;;11.70;6.93;;;;;;;;;;5051171;28;20203;-68
2022/03/22 00:44:02;;;;;;;17.88;7.45;;;;;;;;;;5051115;28;20044;-68
2022/03/22 00:47:07;;;;;;;10.93;7.20;;;;;;;;;;5050717;28;20535;-68
2022/03/22 00:50:12;;;;;;;14.07;6.80;;;;;;;;;;5050912;28;20130;-68
2022/03/22 00:53:18;;;;;;;14.18;6.78;;;;;;;;;;5050721;28;20056;-69
2022/03/22 00:56:23;;;;;;;10.18;6.30;;;;;;;;;;5050803;28;20508;-68
2022/03/22 01:02:50;;;;;;;16.45;7.43;;;;;;;;;;5050468;28;20400;-68
2022/03/22 01:05:54;;;;;;;13.85;6.60;;;;;;;;;;5050703;28;20063;-68
2022/03/22 01:08:59;;;;;;;12.25;6.45;;;;;;;;;;5050697;28;20052;-68
2022/03/22 01:12:03;;;;;;;14.00;6.80;;;;;;;;;;5050290;28;20044;-68
2022/03/22 01:15:15;;;;;;;9.60;6.40;;;;;;;;;;5050315;28;20052;-68
2022/03/22 01:18:21;;;;;;;12.52;6.75;;;;;;;;;;5050645;28;20041;-68
2022/03/22 01:21:25;;;;;;;13.00;6.35;;;;;;;;;;5051815;28;20048;-68
2022/03/22 01:24:30;;;;;;;9.65;6.15;;;;;;;;;;5054614;28;20669;-68
2022/03/22 01:27:35;;;;;;;13.55;6.57;;;;;;;;;;5054771;28;20033;-68
2022/03/22 01:30:39;;;;;;;9.57;6.28;;;;;;;;;;5054458;28;20059;-69
2022/03/22 01:33:43;;;;;;;14.02;6.57;;;;;;;;;;5054337;28;20033;-68
2022/03/22 01:36:48;;;;;;;10.52;6.60;;;;;;;;;;5054502;28;20056;-68
2022/03/22 01:39:52;;;;;;;12.70;6.30;;;;;;;;;;5054374;28;20044;-68
2022/03/22 01:42:58;;;;;;;13.35;5.97;;;;;;;;;;5054140;28;20508;-68
2022/03/22 01:46:02;;;;;;;17.15;6.53;;;;;;;;;;5053936;28;20040;-68
2022/03/22 01:49:07;;;;;;;24.83;7.47;;;;;;;;;;5054031;28;20055;-68
2022/03/22 01:52:15;;;;;;;17.27;6.47;;;;;;;;;;5054018;28;20116;-68
2022/03/22 01:55:20;;;;;;;11.63;5.82;;;;;;;;;;5053979;28;20047;-68
2022/03/22 01:58:24;;;;;;;15.10;7.10;;;;;;;;;;5053801;28;20207;-68
2022/03/22 02:08:21;;;;;;;13.50;7.00;;;;;;;;;;5053499;28;20519;-69
2022/03/22 02:11:25;;;;;;;15.70;6.32;;;;;;;;;;5053866;28;20051;-69
2022/03/22 02:14:30;;;;;;;18.67;8.25;;;;;;;;;;5053480;28;20499;-68
2022/03/22 02:17:34;;;;;;;12.32;7.82;;;;;;;;;;5053419;28;20051;-69
2022/03/22 02:20:39;;;;;;;13.65;7.65;;;;;;;;;;5053320;28;20404;-69
2022/03/22 02:23:54;;;;;;;13.68;7.63;;;;;;;;;;5053227;28;20043;-68
2022/03/22 02:26:59;;;;;;;15.43;8.15;;;;;;;;;;5052540;28;20400;-68
2022/03/22 02:30:04;;;;;;;11.68;8.07;;;;;;;;;;5053034;28;20060;-68
2022/03/22 02:33:08;;;;;;;19.55;8.15;;;;;;;;;;5051682;28;20039;-68
2022/03/22 02:36:13;;;;;;;14.88;8.60;;;;;;;;;;5053554;28;20052;-69
2022/03/22 02:39:18;;;;;;;14.88;7.88;;;;;;;;;;5052800;28;20143;-69
2022/03/22 02:42:22;;;;;;;15.95;7.97;;;;;;;;;;5053174;28;20052;-68
2022/03/22 02:45:26;;;;;;;15.27;8.30;;;;;;;;;;5052938;28;20044;-69
2022/03/22 02:48:31;;;;;;;15.30;8.18;;;;;;;;;;5052913;28;20051;-68
2022/03/22 02:51:35;;;;;;;13.40;7.47;;;;;;;;;;5053047;28;20390;-68
2022/03/22 02:54:39;;;;;;;12.82;7.60;;;;;;;;;;5052666;28;20048;-68
2022/03/22 02:57:44;;;;;;;14.52;8.50;;;;;;;;;;5052781;28;20040;-68
2022/03/22 03:00:48;;;;;;;13.75;7.65;;;;;;;;;;5052691;28;20055;-69
2022/03/22 03:03:52;;;;;;;12.45;7.82;;;;;;;;;;5052617;28;20055;-68
2022/03/22 03:06:56;;;;;;;13.23;8.13;;;;;;;;;;5051886;28;20393;-69
2022/03/22 03:10:01;;;;;;;13.88;7.43;;;;;;;;;;5052247;28;20044;-68
2022/03/22 03:13:06;;;;;;;10.93;6.95;;;;;;;;;;5052606;28;20064;-68
2022/03/22 03:16:10;;;;;;;12.52;7.30;;;;;;;;;;5052857;28;20055;-68
2022/03/22 03:19:14;;;;;;;12.43;8.13;;;;;;;;;;5052202;28;20048;-69
2022/03/22 03:22:18;;;;;;;16.20;7.82;;;;;;;;;;5052542;28;20483;-68
2022/03/22 03:25:23;;;;;;;15.07;7.78;;;;;;;;;;5052222;28;20503;-68
2022/03/22 03:28:28;;;;;;;15.45;7.78;;;;;;;;;;5051704;28;20060;-68
2022/03/22 03:31:32;;;;;;;15.13;7.10;;;;;;;;;;5052409;28;20043;-68
2022/03/22 03:34:37;;;;;;;12.30;7.70;;;;;;;;;;5052256;28;20401;-68
2022/03/22 03:37:43;;;;;;;16.20;7.60;;;;;;;;;;5052023;28;20104;-68
2022/03/22 03:47:34;;;;;;;16.45;8.52;;;;;;;;;;5051345;28;20063;-68
2022/03/22 03:50:39;;;;;;;14.07;8.02;;;;;;;;;;5051847;28;20203;-69
2022/03/22 03:53:44;;;;;;;15.23;8.07;;;;;;;;;;5051849;28;20044;-68
2022/03/22 03:56:48;;;;;;;14.63;8.65;;;;;;;;;;5051434;28;20119;-68
2022/03/22 03:59:53;;;;;;;13.18;8.18;;;;;;;;;;5050894;28;20443;-68
2022/03/22 04:02:57;;;;;;;15.10;8.65;;;;;;;;;;5051470;28;20104;-69
2022/03/22 04:06:01;;;;;;;22.05;9.45;;;;;;;;;;5051440;28;20048;-69
2022/03/22 04:09:05;;;;;;;16.77;9.52;;;;;;;;;;5051265;28;20059;-68
2022/03/22 04:12:10;;;;;;;19.30;10.05;;;;;;;;;;5051971;28;20040;-69
2022/03/22 04:15:14;;;;;;;15.25;9.90;;;;;;;;;;5051199;28;20060;-68
2022/03/22 04:18:18;;;;;;;16.27;9.45;;;;;;;;;;5050999;28;20067;-69
2022/03/22 04:21:23;;;;;;;19.63;10.57;;;;;;;;;;5051161;28;20039;-68
2022/03/22 04:24:27;;;;;;;13.85;9.77;;;;;;;;;;5051098;28;20055;-68
2022/03/22 04:34:19;;;;;;;14.45;9.30;;;;;;;;;;5051322;28;20044;-68
2022/03/22 04:37:24;;;;;;;16.23;9.82;;;;;;;;;;5050932;28;20397;-68
2022/03/22 04:40:28;;;;;;;16.73;9.70;;;;;;;;;;5049888;28;20048;-68
2022/03/22 04:43:32;;;;;;;16.58;9.73;;;;;;;;;;5051160;28;20051;-68
2022/03/22 04:46:37;;;;;;;18.50;10.23;;;;;;;;;;5050727;28;20043;-68
2022/03/22 04:49:41;;;;;;;20.63;10.07;;;;;;;;;;5050628;28;20052;-69
2022/03/22 04:59:31;;;;;;;24.40;11.38;;;;;;;;;;5050821;28;20420;-69
2022/03/22 05:02:35;;;;;;;20.25;11.48;;;;;;;;;;5049617;28;20056;-68
2022/03/22 05:09:03;;;;;;;23.10;13.68;;;;;;;;;;5050176;28;20056;-68
2022/03/22 05:12:13;;;;;;;21.30;12.32;;;;;;;;;;5050466;28;20291;-68
2022/03/22 05:15:17;;;;;;;23.88;11.75;;;;;;;;;;5050330;28;20211;-68
2022/03/22 05:18:22;;;;;;;21.90;11.48;;;;;;;;;;5050922;28;20373;-69
2022/03/22 05:21:26;;;;;;;20.60;10.95;;;;;;;;;;5049851;28;20048;-69
2022/03/22 05:24:30;;;;;;;20.85;10.45;;;;;;;;;;5050527;28;20052;-68
2022/03/22 05:27:36;;;;;;;19.52;11.10;;;;;;;;;;5050324;28;20068;-69
2022/03/22 05:30:40;;;;;;;19.25;10.70;;;;;;;;;;5049639;28;20036;-69
2022/03/22 05:33:44;;;;;;;25.85;11.55;;;;;;;;;;5050391;28;20056;-69
2022/03/22 05:36:48;;;;;;;28.02;11.48;;;;;;;;;;5050268;28;20052;-69
2022/03/22 05:39:53;;;;;;;28.20;10.73;;;;;;;;;;5050422;28;20051;-70
2022/03/22 05:42:57;;;;;;;25.60;10.43;;;;;;;;;;5050078;28;20040;-68
2022/03/22 05:46:04;;;;;;;25.25;10.93;;;;;;;;;;5050356;28;20044;-69
2022/03/22 05:49:09;;;;;;;26.45;12.57;;;;;;;;;;5049919;28;20052;-68
2022/03/22 05:52:13;;;;;;;28.05;11.32;;;;;;;;;;5050186;28;20384;-69
2022/03/22 05:55:17;;;;;;;30.90;11.98;;;;;;;;;;5050330;28;20056;-69
2022/03/22 05:58:21;;;;;;;23.98;11.63;;;;;;;;;;5049733;28;20044;-69
2022/03/22 06:01:27;;;;;;;25.25;11.23;;;;;;;;;;5049778;28;20052;-69
2022/03/22 06:04:31;;;;;;;31.33;12.25;;;;;;;;;;5050171;28;20060;-68
2022/03/22 06:07:39;;;;;;;32.80;11.38;;;;;;;;;;5051488;28;20040;-69
2022/03/22 06:10:43;;;;;;;27.92;12.68;;;;;;;;;;5053454;28;20040;-68
2022/03/22 06:13:48;;;;;;;25.25;12.07;;;;;;;;;;5053780;28;20043;-69
2022/03/22 06:16:52;;;;;;;25.70;11.68;;;;;;;;;;5053490;28;20052;-69
2022/03/22 06:19:56;;;;;;;24.55;11.02;;;;;;;;;;5053506;28;20044;-69
2022/03/22 06:23:02;;;;;;;25.45;12.40;;;;;;;;;;5053126;28;20048;-69
2022/03/22 06:26:06;;;;;;;27.67;11.43;;;;;;;;;;5053220;28;20036;-69
2022/03/22 06:29:10;;;;;;;29.75;12.13;;;;;;;;;;5052947;28;20051;-59
2022/03/22 06:32:15;;;;;;;33.80;12.13;;;;;;;;;;5053235;28;20040;-59
2022/03/22 06:35:20;;;;;;;24.92;13.10;;;;;;;;;;5053363;28;20036;-59
2022/03/22 06:38:24;;;;;;;20.63;11.70;;;;;;;;;;5052697;28;20036;-59
2022/03/22 06:41:29;;;;;;;25.58;12.23;;;;;;;;;;5051897;28;20120;-59
2022/03/22 06:44:37;;;;;;;31.52;13.15;;;;;;;;;;5053555;28;20048;-58
2022/03/22 06:47:42;;;;;;;23.00;11.98;;;;;;;;;;5052559;28;20511;-58
2022/03/22 06:50:50;;;;;;;20.52;11.40;;;;;;;;;;5053110;28;20052;-58
2022/03/22 06:53:54;;;;;;;26.17;12.52;;;;;;;;;;5053015;28;20393;-59
2022/03/22 06:56:58;;;;;;;21.25;11.20;;;;;;;;;;5052524;28;20043;-59
2022/03/22 07:00:08;;;;;;;20.38;11.02;;;;;;;;;;5052749;28;20104;-58
2022/03/22 07:03:13;;;;;;;24.48;11.55;;;;;;;;;;5052710;28;20048;-59
2022/03/22 07:06:17;;;;;;;19.35;10.18;;;;;;;;;;5052364;28;20044;-59
2022/03/22 07:09:22;;;;;;;38.08;11.13;;;;;;;;;;5052295;28;20052;-59
2022/03/22 07:12:26;;;;;;;22.30;10.65;;;;;;;;;;5052134;28;20052;-59
2022/03/22 07:15:33;;;;;;;33.40;11.07;;;;;;;;;;5052277;28;20055;-63
2022/03/22 07:18:37;;;;;;;25.45;9.82;;;;;;;;;;5051257;28;20040;-62
2022/03/22 07:21:42;;;;;;;17.42;9.90;;;;;;;;;;5051381;28;20051;-61
2022/03/22 07:24:46;;;;;;;16.50;9.60;;;;;;;;;;5052185;28;20041;-61
2022/03/22 07:27:51;;;;;;;20.25;10.32;;;;;;;;;;5051906;28;20052;-61
2022/03/22 07:30:55;;;;;;;14.68;9.25;;;;;;;;;;5051915;28;20068;-63
2022/03/22 07:33:59;;;;;;;20.65;11.75;;;;;;;;;;5052103;28;20504;-63
2022/03/22 07:37:04;;;;;;;21.10;10.77;;;;;;;;;;5051832;28;20064;-63
2022/03/22 07:40:10;;;;;;;23.50;9.93;;;;;;;;;;5051775;28;20538;-61
2022/03/22 07:43:14;;;;;;;19.80;10.05;;;;;;;;;;5051926;28;20052;-60
2022/03/22 07:46:18;;;;;;;17.58;9.82;;;;;;;;;;5051755;28;20044;-61
2022/03/22 07:52:58;;;;;;;23.13;9.80;;;;;;;;;;5051676;28;20048;-61
2022/03/22 07:56:02;;;;;;;15.10;8.45;;;;;;;;;;5051622;28;20102;-61
2022/03/22 07:59:06;;;;;;;18.23;8.73;;;;;;;;;;5051164;28;20044;-61
2022/03/22 08:02:11;;;;;;;13.88;8.30;;;;;;;;;;5050807;28;20052;-61
2022/03/22 08:05:15;;;;;;;26.58;9.23;;;;;;;;;;5051231;28;20040;-61
2022/03/22 08:08:20;;;;;;;15.98;9.00;;;;;;;;;;5051101;28;20052;-61
2022/03/22 08:11:24;;;;;;;18.58;9.40;;;;;;;;;;5051586;28;20052;-60
2022/03/22 08:14:28;;;;;;;18.55;9.02;;;;;;;;;;5051218;28;20523;-61
2022/03/22 08:17:33;;;;;;;17.25;8.82;;;;;;;;;;5051176;28;20036;-60
2022/03/22 08:20:37;;;;;;;17.35;9.63;;;;;;;;;;5051319;28;20051;-61
2022/03/22 08:23:41;;;;;;;24.13;9.73;;;;;;;;;;5050803;28;20516;-61
2022/03/22 08:26:46;;;;;;;18.40;8.55;;;;;;;;;;5050816;28;20163;-61
2022/03/22 08:29:51;;;;;;;16.15;8.05;;;;;;;;;;5049997;28;20519;-61
2022/03/22 08:32:58;;;;;;;13.73;8.43;;;;;;;;;;5050945;28;20048;-61
2022/03/22 08:36:02;;;;;;;17.73;8.82;;;;;;;;;;5050896;28;20048;-63
2022/03/22 08:39:07;;;;;;;17.90;8.95;;;;;;;;;;5050858;28;20051;-63
2022/03/22 08:42:11;;;;;;;17.63;8.50;;;;;;;;;;5051056;28;20507;-63
2022/03/22 08:45:16;;;;;;;14.52;8.32;;;;;;;;;;5050763;28;20044;-62
2022/03/22 08:48:21;;;;;;;20.80;8.85;;;;;;;;;;5050573;28;20056;-62
2022/03/22 08:51:26;;;;;;;20.17;9.75;;;;;;;;;;5050521;28;20420;-62
2022/03/22 08:54:30;;;;;;;17.13;9.02;;;;;;;;;;5050740;28;20511;-62
2022/03/22 08:57:35;;;;;;;18.90;8.93;;;;;;;;;;5050459;28;20504;-62
2022/03/22 09:00:40;;;;;;;11.88;8.20;;;;;;;;;;5050628;28;20051;-62
2022/03/22 09:06:07;;;;;;;17.85;7.68;;;;;;;;;;5050465;28;20043;-63
2022/03/22 09:07:09;;;;;;;16.48;9.10;;;;;;;;;;5050382;28;20049;-62
2022/03/22 09:10:14;;;;;;;15.45;8.18;;;;;;;;;;5050151;28;20048;-61
2022/03/22 09:13:19;;;;;;;19.20;8.98;;;;;;;;;;5049793;28;20408;-62
2022/03/22 09:16:23;;;;;;;23.08;9.32;;;;;;;;;;5049436;28;20059;-62
2022/03/22 09:19:29;;;;;;;26.25;9.50;;;;;;;;;;5049781;28;20052;-62
2022/03/22 09:22:34;;;;;;;15.38;9.10;;;;;;;;;;5050695;28;20044;-62
2022/03/22 09:25:39;;;;;;;17.92;8.02;;;;;;;;;;5049946;28;20045;-62
2022/03/22 09:28:43;;;;;;;14.57;9.02;;;;;;;;;;5049609;28;20060;-60
2022/03/22 09:31:48;;;;;;;18.45;8.30;;;;;;;;;;5050713;28;20052;-62
2022/03/22 09:34:52;;;;;;;16.80;8.68;;;;;;;;;;5050198;28;20048;-62
2022/03/22 09:37:56;;;;;;;13.48;7.90;;;;;;;;;;5050081;28;20044;-62
2022/03/22 09:41:01;;;;;;;13.18;8.10;;;;;;;;;;5050346;28;20060;-61
2022/03/22 09:44:05;;;;;;;18.42;9.23;;;;;;;;;;5053918;28;20044;-62
2022/03/22 09:47:11;;;;;;;17.00;9.52;;;;;;;;;;5052788;28;20032;-63
2022/03/22 09:50:16;;;;;;;15.80;9.43;;;;;;;;;;5053772;28;20048;-62
2022/03/22 09:53:20;;;;;;;16.45;8.40;;;;;;;;;;5054064;28;20055;-62
2022/03/22 09:56:31;;;;;;;19.88;8.55;;;;;;;;;;5053928;28;20063;-62
2022/03/22 09:59:36;;;;;;;17.90;9.43;;;;;;;;;;5053733;28;20056;-62
2022/03/22 10:02:40;;;;;;;18.42;9.48;;;;;;;;;;5053766;28;20052;-63
2022/03/22 10:05:46;;;;;;;14.43;8.10;;;;;;;;;;5053818;28;20048;-63
2022/03/22 10:08:50;;;;;;;14.38;8.98;;;;;;;;;;5053298;28;20060;-62
2022/03/22 10:11:55;;;;;;;14.52;8.30;;;;;;;;;;5053569;28;20514;-62
2022/03/22 10:15:08;;;;;;;15.50;9.15;;;;;;;;;;5053295;28;20128;-63
2022/03/22 10:18:13;;;;;;;11.65;8.68;;;;;;;;;;5053243;28;20512;-62
2022/03/22 10:21:17;;;;;;;17.45;9.73;;;;;;;;;;5053037;28;20040;-61
2022/03/22 10:24:21;;;;;;;14.70;8.70;;;;;;;;;;5053517;28;20054;-62
2022/03/22 10:27:27;;;;;;;13.82;8.10;;;;;;;;;;5053288;28;20499;-62
2022/03/22 10:30:32;;;;;;;20.77;8.52;;;;;;;;;;5053300;28;20052;-61
2022/03/22 10:33:36;;;;;;;18.15;8.70;;;;;;;;;;5053072;28;20400;-62
2022/03/22 10:36:41;;;;;;;12.75;8.23;;;;;;;;;;5052365;28;20056;-61
2022/03/22 10:39:46;;;;;;;16.73;8.77;;;;;;;;;;5053337;28;20040;-61
2022/03/22 10:42:51;;;;;;;13.18;7.78;;;;;;;;;;5052935;28;20404;-61
2022/03/22 10:46:00;;;;;;;19.33;9.82;;;;;;;;;;5052708;28;20048;-62
2022/03/22 10:49:18;;;;;;;16.17;7.75;;;;;;;;;;5052550;28;20052;-62
2022/03/22 10:52:22;;;;;;;12.05;7.63;;;;;;;;;;5052641;28;20039;-62
2022/03/22 10:55:27;;;;;;;13.35;8.10;;;;;;;;;;5052047;28;20059;-61
2022/03/22 10:58:32;;;;;;;12.77;8.02;;;;;;;;;;5053243;28;20044;-64
2022/03/22 11:01:37;;;;;;;17.70;9.07;;;;;;;;;;5052965;28;20056;-61
2022/03/22 11:04:43;;;;;;;16.95;9.55;;;;;;;;;;5052784;28;20048;-61
2022/03/22 11:07:48;;;;;;;15.50;8.38;;;;;;;;;;5052316;28;20116;-61
2022/03/22 11:10:54;;;;;;;11.32;7.85;;;;;;;;;;5052621;28;20048;-62
2022/03/22 11:13:58;;;;;;;14.65;8.10;;;;;;;;;;5052569;28;20332;-63
2022/03/22 11:17:03;;;;;;;21.40;8.73;;;;;;;;;;5052234;28;20068;-61
2022/03/22 11:20:09;;;;;;;13.75;7.57;;;;;;;;;;5052409;28;20043;-62
2022/03/22 11:23:13;;;;;;;17.17;8.25;;;;;;;;;;5052223;28;20504;-61
2022/03/22 11:26:20;;;;;;;15.57;7.53;;;;;;;;;;5052352;28;20048;-61
2022/03/22 11:29:25;;;;;;;15.65;7.57;;;;;;;;;;5050947;28;20335;-61
2022/03/22 11:35:56;;;;;;;11.63;7.70;;;;;;;;;;5052106;28;20044;-62
2022/03/22 11:39:03;;;;;;;12.20;7.47;;;;;;;;;;5051843;28;20052;-61
2022/03/22 11:42:24;;;;;;;14.60;8.10;;;;;;;;;;5052224;28;20043;-62
2022/03/22 11:45:28;;;;;;;18.85;8.18;;;;;;;;;;5052017;28;20051;-61
2022/03/22 11:48:33;;;;;;;14.40;7.70;;;;;;;;;;5050517;28;20052;-59
2022/03/22 11:51:47;;;;;;;13.05;7.93;;;;;;;;;;5051254;28;20048;-58
2022/03/22 11:54:54;;;;;;;16.40;8.13;;;;;;;;;;5051727;28;20112;-60
2022/03/22 11:58:09;;;;;;;14.43;7.40;;;;;;;;;;5051458;28;20048;-59
2022/03/22 12:01:16;;;;;;;12.80;7.72;;;;;;;;;;5051431;28;20040;-59
2022/03/22 12:04:20;;;;;;;12.27;7.45;;;;;;;;;;5050639;28;20047;-58
2022/03/22 12:07:27;;;;;;;10.95;6.68;;;;;;;;;;5051099;28;20404;-58
2022/03/22 12:10:31;;;;;;;8.60;6.68;;;;;;;;;;5048846;28;20063;-58
2022/03/22 12:13:43;;;;;;;16.08;6.78;;;;;;;;;;5051068;28;20481;-59
2022/03/22 12:16:51;;;;;;;14.60;7.70;;;;;;;;;;5050879;28;20063;-58
2022/03/22 12:20:00;;;;;;;13.05;7.55;;;;;;;;;;5051320;28;20040;-58
2022/03/22 12:23:06;;;;;;;10.55;6.05;;;;;;;;;;5051223;28;20064;-58
2022/03/22 12:26:11;;;;;;;17.98;7.10;;;;;;;;;;5051349;28;20048;-58
2022/03/22 12:29:15;;;;;;;17.42;7.20;;;;;;;;;;5050395;28;20083;-58
2022/03/22 12:32:21;;;;;;;14.02;7.45;;;;;;;;;;5051227;28;20306;-58
2022/03/22 12:35:26;;;;;;;14.40;6.80;;;;;;;;;;5050675;28;20496;-59
2022/03/22 12:38:30;;;;;;;10.82;6.60;;;;;;;;;;5050707;28;20052;-58
2022/03/22 12:41:34;;;;;;;14.60;6.93;;;;;;;;;;5051238;28;20048;-58
2022/03/22 12:44:39;;;;;;;10.88;6.65;;;;;;;;;;5050930;28;20048;-58
2022/03/22 12:47:44;;;;;;;13.55;7.47;;;;;;;;;;5050547;28;20040;-58
2022/03/22 12:50:49;;;;;;;15.68;7.15;;;;;;;;;;5050667;28;20543;-58
2022/03/22 12:53:54;;;;;;;11.13;6.80;;;;;;;;;;5050607;28;20044;-58
2022/03/22 12:57:00;;;;;;;10.50;6.95;;;;;;;;;;5051159;28;20044;-58
2022/03/22 13:00:05;;;;;;;11.27;6.88;;;;;;;;;;5050747;28;20060;-58
2022/03/22 13:03:11;;;;;;;10.38;7.28;;;;;;;;;;5053183;28;20059;-58
2022/03/22 13:06:17;;;;;;;14.10;7.90;;;;;;;;;;5050591;28;20275;-58
2022/03/22 13:12:45;;;;;;;17.30;8.10;;;;;;;;;;5050742;28;20492;-58
2022/03/22 13:15:53;;;;;;;15.27;7.20;;;;;;;;;;5050537;28;20056;-58
2022/03/22 13:18:58;;;;;;;14.00;7.53;;;;;;;;;;5054669;28;20218;-57
2022/03/22 13:22:03;;;;;;;15.68;7.55;;;;;;;;;;5054652;28;20048;-58
2022/03/22 13:25:09;;;;;;;18.38;8.82;;;;;;;;;;5053347;28;20503;-58
2022/03/22 13:28:14;;;;;;;17.40;7.45;;;;;;;;;;5054082;28;20389;-57
2022/03/22 13:31:25;;;;;;;11.65;6.85;;;;;;;;;;5054442;28;20116;-58
2022/03/22 13:34:31;;;;;;;9.15;6.88;;;;;;;;;;5053937;28;20044;-57
2022/03/22 13:37:47;;;;;;;35.47;9.25;;;;;;;;;;5054086;28;20037;-57
2022/03/22 13:40:57;;;;;;;11.23;7.00;;;;;;;;;;5054298;28;20048;-57
2022/03/22 13:44:01;;;;;;;12.85;7.28;;;;;;;;;;5053998;28;20044;-59
2022/03/22 13:47:05;;;;;;;9.50;6.55;;;;;;;;;;5053591;28;20048;-58
2022/03/22 13:50:17;;;;;;;10.32;6.78;;;;;;;;;;5053106;28;20049;-58
2022/03/22 13:53:22;;;;;;;22.90;8.02;;;;;;;;;;5053152;28;20063;-58
2022/03/22 13:56:27;;;;;;;22.60;6.93;;;;;;;;;;5054036;28;20388;-57
2022/03/22 13:59:38;;;;;;;20.10;7.00;;;;;;;;;;5054168;28;20048;-57
2022/03/22 14:02:42;;;;;;;53.03;9.68;;;;;;;;;;5053846;28;20048;-57
2022/03/22 14:05:47;;;;;;;15.32;6.97;;;;;;;;;;5053536;28;20400;-57
2022/03/22 14:08:52;;;;;;;36.00;9.40;;;;;;;;;;5053549;28;20393;-58
2022/03/22 14:11:57;;;;;;;26.92;8.20;;;;;;;;;;5053646;28;20063;-58
2022/03/22 14:15:01;;;;;;;41.72;11.35;;;;;;;;;;5053723;28;20197;-58
2022/03/22 14:18:08;;;;;;;18.88;9.98;;;;;;;;;;5052423;28;20048;-58
2022/03/22 14:21:12;;;;;;;17.83;7.60;;;;;;;;;;5052672;28;20421;-57
2022/03/22 14:24:16;;;;;;;71.90;11.57;;;;;;;;;;5053727;28;20036;-57
2022/03/22 14:27:20;;;;;;;27.23;9.50;;;;;;;;;;5052904;28;20048;-57
2022/03/22 14:30:29;;;;;;;43.15;10.13;;;;;;;;;;5053133;28;20068;-58
2022/03/22 14:33:33;;;;;;;17.77;8.43;;;;;;;;;;5053312;28;20048;-57
2022/03/22 14:36:37;;;;;;;14.73;6.75;;;;;;;;;;5053268;28;20048;-57
2022/03/22 14:39:41;;;;;;;14.23;7.60;;;;;;;;;;5053009;28;20044;-57
2022/03/22 14:42:46;;;;;;;15.73;7.57;;;;;;;;;;5053239;28;20068;-57
2022/03/22 14:45:51;;;;;;;15.00;8.13;;;;;;;;;;5052866;28;20040;-57
2022/03/22 14:48:55;;;;;;;19.73;7.82;;;;;;;;;;5052601;28;20060;-58
2022/03/22 14:55:22;;;;;;;14.15;7.70;;;;;;;;;;5052813;28;20048;-58
2022/03/22 15:01:50;;;;;;;17.20;8.60;;;;;;;;;;5051658;28;20052;-58
2022/03/22 15:04:54;;;;;;;13.65;7.93;;;;;;;;;;5051846;28;20036;-58
2022/03/22 15:08:01;;;;;;;17.33;8.27;;;;;;;;;;5052471;28;20060;-57
2022/03/22 15:11:06;;;;;;;16.73;8.02;;;;;;;;;;5052347;28;20044;-57
2022/03/22 15:14:15;;;;;;;13.57;7.78;;;;;;;;;;5052555;28;20130;-58
2022/03/22 15:17:19;;;;;;;14.50;7.63;;;;;;;;;;5052279;28;20052;-57
2022/03/22 15:20:24;;;;;;;16.83;7.78;;;;;;;;;;5052179;28;20044;-57
2022/03/22 15:23:28;;;;;;;11.85;8.15;;;;;;;;;;5052245;28;20036;-58
2022/03/22 15:26:33;;;;;;;22.55;13.15;;;;;;;;;;5052114;28;20115;-58
2022/03/22 15:29:37;;;;;;;15.15;8.95;;;;;;;;;;5051604;28;20056;-57
2022/03/22 15:32:42;;;;;;;14.95;8.93;;;;;;;;;;5052254;28;20040;-58
2022/03/22 15:35:47;;;;;;;17.40;7.65;;;;;;;;;;5052033;28;20047;-57
2022/03/22 15:38:51;;;;;;;12.65;7.90;;;;;;;;;;5052205;28;20052;-58
2022/03/22 15:41:55;;;;;;;12.48;7.75;;;;;;;;;;5051751;28;20639;-60
2022/03/22 15:45:00;;;;;;;17.95;8.25;;;;;;;;;;5051714;28;20052;-59
2022/03/22 15:48:04;;;;;;;12.80;7.85;;;;;;;;;;5051678;28;20044;-59
2022/03/22 15:51:09;;;;;;;18.15;7.80;;;;;;;;;;5051707;28;20064;-59
2022/03/22 15:54:13;;;;;;;10.77;7.10;;;;;;;;;;5051330;28;20048;-58
2022/03/22 15:57:17;;;;;;;17.17;8.57;;;;;;;;;;5051238;28;20044;-58
2022/03/22 16:00:23;;;;;;;18.05;7.88;;;;;;;;;;5051371;28;20040;-58
2022/03/22 16:03:27;;;;;;;13.40;6.82;;;;;;;;;;5051486;28;20043;-58
2022/03/22 16:06:34;;;;;;;14.55;6.88;;;;;;;;;;5051240;28;20048;-58
2022/03/22 16:09:39;;;;;;;18.05;6.97;;;;;;;;;;5051376;28;20064;-58
2022/03/22 16:12:44;;;;;;;12.68;7.05;;;;;;;;;;5050073;28;20384;-58
2022/03/22 16:15:51;;;;;;;13.38;7.10;;;;;;;;;;5050606;28;20056;-57
2022/03/22 16:18:55;;;;;;;16.48;8.02;;;;;;;;;;5050885;28;20044;-58
2022/03/22 16:22:00;;;;;;;16.25;8.82;;;;;;;;;;5050919;28;20066;-58
2022/03/22 16:25:06;;;;;;;14.02;9.15;;;;;;;;;;5050549;28;20401;-58
2022/03/22 16:28:10;;;;;;;15.32;8.65;;;;;;;;;;5050625;28;20449;-58
2022/03/22 16:31:15;;;;;;;13.27;7.47;;;;;;;;;;5051021;28;20540;-57
2022/03/22 16:37:43;;;;;;;17.23;8.43;;;;;;;;;;5050915;28;20036;-58
2022/03/22 16:40:47;;;;;;;13.85;8.25;;;;;;;;;;5050849;28;20059;-57
2022/03/22 16:43:51;;;;;;;17.42;7.70;;;;;;;;;;5049696;28;20048;-58
2022/03/22 16:46:56;;;;;;;15.40;7.15;;;;;;;;;;5048339;28;20047;-57
2022/03/22 16:50:04;;;;;;;10.35;7.13;;;;;;;;;;5048886;28;20508;-57
2022/03/22 16:53:08;;;;;;;14.95;6.80;;;;;;;;;;5048515;28;20235;-58
2022/03/22 16:56:14;;;;;;;18.83;8.60;;;;;;;;;;5048047;28;20071;-58
2022/03/22 16:59:21;;;;;;;14.45;7.47;;;;;;;;;;5048234;28;20064;-58
2022/03/22 17:02:26;;;;;;;17.02;8.35;;;;;;;;;;5048885;28;20504;-58
2022/03/22 17:05:30;;;;;;;15.23;7.70;;;;;;;;;;5049954;28;20402;-58
2022/03/22 17:08:37;;;;;;;12.88;7.13;;;;;;;;;;5050648;28;20040;-58
2022/03/22 17:11:41;;;;;;;19.92;8.23;;;;;;;;;;5050395;28;20052;-58
2022/03/22 17:14:47;;;;;;;16.77;7.20;;;;;;;;;;5050302;28;20040;-58
2022/03/22 17:17:51;;;;;;;15.05;7.60;;;;;;;;;;5049776;28;20047;-58
2022/03/22 17:20:55;;;;;;;18.70;7.28;;;;;;;;;;5050123;28;20504;-57
2022/03/22 17:24:00;;;;;;;19.73;8.32;;;;;;;;;;5050219;28;20051;-58
2022/03/22 17:27:05;;;;;;;13.73;8.55;;;;;;;;;;5050231;28;20044;-57
2022/03/22 17:30:10;;;;;;;13.73;8.05;;;;;;;;;;5050154;28;20056;-57
2022/03/22 17:33:14;;;;;;;13.85;7.43;;;;;;;;;;5049872;28;20044;-57
2022/03/22 17:36:20;;;;;;;14.63;8.27;;;;;;;;;;5049752;28;20662;-58
2022/03/22 17:39:24;;;;;;;17.13;10.75;;;;;;;;;;5050444;28;20048;-58
2022/03/22 17:42:28;;;;;;;16.67;9.30;;;;;;;;;;5050135;28;20060;-58
2022/03/22 17:45:32;;;;;;;19.33;8.75;;;;;;;;;;5049669;28;20044;-58
2022/03/22 17:48:37;;;;;;;17.50;8.60;;;;;;;;;;5050237;28;20048;-58
2022/03/22 17:51:41;;;;;;;18.20;9.20;;;;;;;;;;5049935;28;20048;-58
2022/03/22 17:54:45;;;;;;;19.60;10.40;;;;;;;;;;5050178;28;20048;-58
2022/03/22 17:57:50;;;;;;;15.40;9.23;;;;;;;;;;5049784;28;20048;-60
2022/03/22 18:00:54;;;;;;;18.42;9.27;;;;;;;;;;5050296;28;20044;-58
2022/03/22 18:03:58;;;;;;;20.35;10.15;;;;;;;;;;5051800;28;20044;-58
2022/03/22 18:07:03;;;;;;;21.25;10.48;;;;;;;;;;5053520;28;20060;-59
2022/03/22 18:10:07;;;;;;;18.10;10.82;;;;;;;;;;5052481;28;20409;-66
2022/03/22 18:13:11;;;;;;;21.65;11.48;;;;;;;;;;5052548;28;20400;-66
2022/03/22 18:16:16;;;;;;;20.95;12.00;;;;;;;;;;5051407;28;20068;-66
2022/03/22 18:19:21;;;;;;;26.40;14.13;;;;;;;;;;5051905;28;20048;-66
2022/03/22 18:22:27;;;;;;;21.00;12.98;;;;;;;;;;5052881;28;20069;-66
2022/03/22 18:25:31;;;;;;;27.08;12.82;;;;;;;;;;5052987;28;20052;-66
2022/03/22 18:28:37;;;;;;;25.60;13.18;;;;;;;;;;5052858;28;20048;-67
2022/03/22 18:31:41;;;;;;;24.00;12.63;;;;;;;;;;5052939;28;20060;-66
2022/03/22 18:34:46;;;;;;;19.02;12.88;;;;;;;;;;5052820;28;20044;-67
2022/03/22 18:37:50;;;;;;;20.98;12.60;;;;;;;;;;5052946;28;20044;-67
2022/03/22 18:40:57;;;;;;;19.40;11.57;;;;;;;;;;5052706;28;20055;-67
2022/03/22 18:44:01;;;;;;;20.63;11.45;;;;;;;;;;5052518;28;20405;-67
2022/03/22 18:47:08;;;;;;;20.05;11.82;;;;;;;;;;5052890;28;20044;-67
2022/03/22 18:50:13;;;;;;;20.25;11.13;;;;;;;;;;5052830;28;20211;-67
2022/03/22 18:53:18;;;;;;;20.52;10.43;;;;;;;;;;5053063;28;20063;-66
2022/03/22 18:56:22;;;;;;;16.17;10.65;;;;;;;;;;5052689;28;20077;-67
2022/03/22 18:59:26;;;;;;;23.00;13.77;;;;;;;;;;5052826;28;20043;-65
2022/03/22 19:02:31;;;;;;;25.95;15.65;;;;;;;;;;5052739;28;20063;-65